Latest Weather Observations for Normanton

IDQ60801

Issued at 8:32 pm EST Saturday 25 April 2015 (issued every 30 minutes, with the page automatically refreshed every 10 minutes)

About weather observations | Map of weather stations | Latest weather observations for QLD | Other Formats
Station Details ID: 029063 Name: NORMANTON AIRPORT Lat: -17.69 Lon: 141.07 Height: 18.42 m
Data from the previous 72 hours. | See also: Recent months at Normanton
Date/Time
EST
Temp
°C
App
Temp
°C
Dew
Point
Rel
Hum
%
Delta-T
°C
Wind Press
QNH
hPa
Press
MSL
hPa
Rain
since 9 am
mm
Dir
 
Spd
km/h
Gust
km/h
Spd
kts
Gust
kts
25/08:30pm 25.6 22.1 3.5 24 10.9 S 11 13 6 7 1013.0 - 0.0
25/08:00pm 26.7 23.1 3.2 22 11.6 S 11 13 6 7 1012.5 - 0.0
25/07:30pm 27.6 23.6 2.6 20 12.3 S 13 15 7 8 1012.0 - 0.0
25/07:00pm 28.9 24.4 2.2 18 13.2 S 15 20 8 11 1011.5 - 0.0
25/06:30pm 30.2 24.7 1.6 16 14.1 S 20 26 11 14 1011.2 - 0.0
25/06:00pm 31.4 24.6 0.7 14 15.0 S 26 35 14 19 1010.9 1010.7 0.0
25/05:30pm 32.1 26.1 1.3 14 15.3 S 22 33 12 18 1010.6 - 0.0
25/05:00pm 32.6 25.8 0.6 13 15.7 S 26 35 14 19 1010.1 - 0.0
25/04:30pm 32.5 27.0 1.6 14 15.4 SSE 20 30 11 16 1009.8 - 0.0
25/04:00pm 32.9 26.5 0.9 13 15.8 SSE 24 35 13 19 1009.6 - 0.0
25/03:30pm 33.5 27.3 2.4 14 15.8 S 24 32 13 17 1009.6 - 0.0
25/03:00pm 32.8 26.2 1.8 14 15.6 S 26 39 14 21 1009.5 1009.2 0.0
25/02:30pm 33.1 26.3 3.0 15 15.4 S 28 35 15 19 1009.7 - 0.0
25/02:00pm 32.6 26.5 2.6 15 15.2 S 24 43 13 23 1010.0 - 0.0
25/01:30pm 32.1 26.4 3.1 16 14.8 SE 22 35 12 19 1010.4 - 0.0
25/01:00pm 31.7 26.4 2.8 16 14.6 SE 20 37 11 20 1010.8 - 0.0
25/12:30pm 31.3 24.4 2.5 16 14.5 SSE 28 39 15 21 1011.4 - 0.0
25/12:00pm 30.2 23.5 1.6 16 14.1 SSE 26 41 14 22 1011.9 1011.7 0.0
25/11:30am 29.6 22.7 2.8 18 13.4 SSE 28 44 15 24 1012.3 - 0.0
25/11:00am 29.6 22.0 2.8 18 13.4 SSE 32 44 17 24 1012.7 - 0.0
25/10:30am 28.3 20.8 3.2 20 12.5 SSE 32 43 17 23 1013.1 - 0.0
25/10:00am 27.6 20.3 2.6 20 12.3 SSE 30 44 16 24 1013.2 - 0.0
25/09:30am 26.9 19.3 2.7 21 11.9 SSE 32 44 17 24 1013.4 - 0.0
25/09:00am 25.8 18.6 3.1 23 11.1 SSE 30 43 16 23 1013.2 1012.9 0.0
25/08:30am 24.4 19.1 3.1 25 10.3 SSE 20 30 11 16 1013.1 - 0.0
25/08:00am 23.2 17.1 2.7 26 9.8 SSE 24 30 13 16 1012.8 - 0.0
25/07:30am 22.0 16.6 2.7 28 9.1 S 20 24 11 13 1012.3 - 0.0
25/07:00am 20.5 16.0 2.3 30 8.5 S 15 19 8 10 1011.7 - 0.0
25/06:30am 20.9 16.0 2.2 29 8.7 S 17 22 9 12 1011.2 - 0.0
25/06:00am 21.4 16.0 2.6 29 8.9 S 20 26 11 14 1010.7 1010.5 0.0
25/05:30am 21.3 16.1 2.6 29 8.8 S 19 22 10 12 1010.5 - 0.0
25/05:00am 21.8 16.7 3.0 29 8.9 S 19 24 10 13 1010.3 - 0.0
25/04:30am 22.2 16.9 2.8 28 9.2 S 20 24 11 13 1010.3 - 0.0
25/04:00am 22.6 17.5 3.2 28 9.3 S 19 22 10 12 1010.2 - 0.0
25/03:30am 21.9 17.6 3.1 29 9.0 S 15 19 8 10 1010.1 - 0.0
25/03:00am 21.6 17.7 3.3 30 8.8 S 13 15 7 8 1010.1 1009.9 0.0
25/02:30am 22.4 18.4 3.0 28 9.3 S 13 15 7 8 1010.2 - 0.0
25/02:00am 22.9 18.6 3.4 28 9.4 S 15 17 8 9 1010.1 - 0.0
25/01:30am 23.4 19.1 3.4 27 9.7 S 15 17 8 9 1010.1 - 0.0
25/01:00am 23.2 18.9 3.2 27 9.6 S 15 17 8 9 1010.3 - 0.0
25/12:30am 23.8 19.5 3.2 26 10.0 S 15 19 8 10 1010.5 - 0.0
25/12:00am 24.4 20.1 3.1 25 10.4 S 15 19 8 10 1010.6 1010.4 0.0
 
Date/Time
EST
Temp
°C
App
Temp
°C
Dew
Point
Rel
Hum
%
Delta-T
°C
Wind Press
QNH
hPa
Press
MSL
hPa
Rain
since 9 am
mm
Dir
 
Spd
km/h
Gust
km/h
Spd
kts
Gust
kts
24/11:30pm 24.3 20.0 3.0 25 10.3 S 15 17 8 9 1010.8 - 0.0
24/11:00pm 24.9 20.6 3.0 24 10.6 SSW 15 17 8 9 1010.9 - 0.0
24/10:30pm 25.0 21.0 3.0 24 10.7 SSW 13 17 7 9 1010.9 - 0.0
24/10:00pm 25.5 21.2 3.5 24 10.8 SSW 15 19 8 10 1010.9 - 0.0
24/09:30pm 25.5 21.6 3.5 24 10.8 SSW 13 17 7 9 1010.8 - 0.0
24/09:00pm 25.6 21.8 4.1 25 10.7 SSW 13 15 7 8 1010.8 1010.6 0.0
24/08:30pm 25.4 21.7 4.5 26 10.5 SW 13 15 7 8 1010.5 - 0.0
24/08:00pm 26.1 22.8 4.6 25 10.8 SSW 11 13 6 7 1010.0 - 0.0
24/07:30pm 26.5 23.3 4.9 25 11.0 SSW 11 13 6 7 1009.6 - 0.0
24/07:00pm 27.0 24.5 6.4 27 10.8 SSW 9 11 5 6 1009.2 - 0.0
24/06:30pm 27.6 24.9 5.8 25 11.3 SSW 9 11 5 6 1008.9 - 0.0
24/06:00pm 31.5 28.5 4.3 18 14.1 S 9 9 5 5 1008.6 1008.3 0.0
24/05:30pm 32.5 28.7 1.6 14 15.4 SSW 11 15 6 8 1008.4 - 0.0
24/05:00pm 33.1 28.6 -0.1 12 16.2 SSW 13 20 7 11 1008.2 - 0.0
24/04:30pm 33.4 29.9 1.3 13 16.0 S 9 15 5 8 1008.2 - 0.0
24/04:00pm 33.1 28.4 1.0 13 15.9 S 15 26 8 14 1008.0 - 0.0
24/03:30pm 33.7 29.6 2.5 14 15.9 SSW 13 20 7 11 1008.2 - 0.0
24/03:00pm 32.9 27.7 -0.2 12 16.1 SSW 17 24 9 13 1008.2 1008.1 0.0
24/02:30pm 33.4 28.0 1.3 13 16.0 S 19 28 10 15 1008.5 - 0.0
24/02:00pm 32.9 27.6 1.9 14 15.6 SSW 19 28 10 15 1008.8 - 0.0
24/01:30pm 32.7 27.0 2.7 15 15.3 SSW 22 30 12 16 1009.1 - 0.0
24/01:00pm 32.0 27.7 3.1 16 14.7 SSW 15 26 8 14 1009.6 - 0.0
24/12:30pm 31.7 27.1 3.7 17 14.4 S 17 30 9 16 1010.1 - 0.0
24/12:00pm 30.9 25.9 3.8 18 13.9 S 19 32 10 17 1010.7 1010.5 0.0
24/11:30am 30.2 25.3 4.0 19 13.4 SSE 19 28 10 15 1011.1 - 0.0
24/11:00am 29.9 24.9 4.5 20 13.1 SSE 20 32 11 17 1011.5 - 0.0
24/10:30am 28.6 23.6 4.8 22 12.2 SSE 20 32 11 17 1011.9 - 0.0
24/10:00am 27.7 23.0 5.3 24 11.6 S 19 24 10 13 1012.1 - 0.0
24/09:30am 26.3 21.9 4.7 25 10.9 SSE 17 24 9 13 1012.0 - 0.0
24/09:00am 24.3 19.9 4.6 28 9.8 SSE 17 24 9 13 1011.8 1011.7 0.0
24/08:30am 22.8 18.2 3.9 29 9.2 SSE 17 24 9 13 1011.7 - 0.0
24/08:00am 20.9 15.8 3.2 31 8.4 S 19 24 10 13 1011.6 - 0.0
24/07:30am 19.1 14.3 2.5 33 7.7 S 17 20 9 11 1011.4 - 0.0
24/07:00am 18.5 13.7 2.4 34 7.4 S 17 20 9 11 1011.1 - 0.0
24/06:30am 18.6 13.8 2.4 34 7.4 S 17 20 9 11 1010.8 - 0.0
24/06:00am 19.5 14.7 2.4 32 7.9 S 17 22 9 12 1010.6 1010.3 0.0
24/05:30am 20.5 15.7 2.8 31 8.3 SSE 17 20 9 11 1010.2 - 0.0
24/05:00am 20.5 15.7 2.8 31 8.3 SSE 17 20 9 11 1010.0 - 0.0
24/04:30am 20.3 15.1 2.2 30 8.4 S 19 24 10 13 1009.9 - 0.0
24/04:00am 20.2 14.9 2.1 30 8.4 S 19 22 10 12 1009.8 - 0.0
24/03:30am 20.5 15.3 2.3 30 8.5 S 19 20 10 11 1009.8 - 0.0
24/03:00am 20.4 15.9 2.3 30 8.4 S 15 19 8 10 1009.9 1009.6 0.0
24/02:30am 20.8 15.9 2.1 29 8.7 S 17 20 9 11 1009.8 - 0.0
24/02:00am 20.5 16.3 1.9 29 8.6 S 13 17 7 9 1009.7 - 0.0
24/01:30am 21.2 16.7 2.0 28 8.9 S 15 17 8 9 1009.7 - 0.0
24/01:00am 21.6 17.0 1.8 27 9.2 S 15 17 8 9 1010.0 - 0.0
24/12:30am 22.0 17.4 1.6 26 9.5 S 15 17 8 9 1010.1 - 0.0
24/12:00am 22.9 18.3 1.3 24 10.0 S 15 19 8 10 1010.3 1010.1 0.0
 
Date/Time
EST
Temp
°C
App
Temp
°C
Dew
Point
Rel
Hum
%
Delta-T
°C
Wind Press
QNH
hPa
Press
MSL
hPa
Rain
since 9 am
mm
Dir
 
Spd
km/h
Gust
km/h
Spd
kts
Gust
kts
23/11:30pm 23.6 18.6 1.3 23 10.4 S 17 22 9 12 1010.2 - 0.0
23/11:00pm 23.8 18.3 0.8 22 10.6 S 19 20 10 11 1010.3 - 0.0
23/10:30pm 23.7 18.6 0.7 22 10.6 S 17 20 9 11 1010.4 - 0.0
23/10:00pm 24.0 19.3 1.0 22 10.7 S 15 20 8 11 1010.6 - 0.0
23/09:30pm 24.5 19.9 1.4 22 10.9 SSW 15 17 8 9 1010.7 - 0.0
23/09:00pm 25.0 20.4 1.8 22 11.1 SSW 15 17 8 9 1010.7 1010.5 0.0
23/08:30pm 25.8 21.2 1.8 21 11.5 SSW 15 20 8 11 1010.5 - 0.0
23/08:00pm 26.0 21.5 2.0 21 11.5 SSW 15 17 8 9 1010.0 - 0.0
23/07:30pm 26.3 22.2 2.3 21 11.6 SSW 13 15 7 8 1009.6 - 0.0
23/07:00pm 27.5 23.3 1.8 19 12.4 SSW 13 15 7 8 1009.3 - 0.0
23/06:30pm 28.8 24.7 2.1 18 13.1 SSW 13 19 7 10 1008.9 - 0.0
23/06:00pm 31.2 27.1 2.4 16 14.5 SSW 13 13 7 7 1008.6 1008.3 0.0
23/05:30pm 32.2 27.4 0.3 13 15.5 SSW 15 19 8 10 1008.3 - 0.0
23/05:00pm 32.6 27.9 -1.7 11 16.2 SSW 13 20 7 11 1008.1 - 0.0
23/04:30pm 32.6 27.3 -0.5 12 16.0 S 17 24 9 13 1008.0 - 0.0
23/04:00pm 33.5 29.2 1.3 13 16.1 SW 13 20 7 11 1008.0 - 0.0
23/03:30pm 32.9 29.9 1.9 14 15.6 SSE 7 22 4 12 1008.0 - 0.0
23/03:00pm 33.1 29.7 2.0 14 15.7 SSW 9 20 5 11 1008.4 1008.2 0.0
23/02:30pm 32.3 29.2 1.4 14 15.4 ESE 7 17 4 9 1008.7 - 0.0
23/02:00pm 31.7 27.4 1.0 14 15.1 S 13 19 7 10 1009.2 - 0.0
23/01:30pm 31.3 28.0 2.5 16 14.5 SE 9 15 5 8 1009.6 - 0.0
23/01:00pm 31.2 27.5 2.4 16 14.4 S 11 20 6 11 1010.1 - 0.0
23/12:30pm 30.8 26.6 3.8 18 13.8 SSE 15 22 8 12 1010.5 - 0.0
23/12:00pm 30.4 26.3 4.2 19 13.5 S 15 22 8 12 1010.9 1010.8 0.0
23/11:30am 29.3 24.8 4.0 20 12.9 SSE 17 24 9 13 1011.3 - 0.0
23/11:00am 28.7 23.8 4.2 21 12.5 SE 19 26 10 14 1011.8 - 0.0
23/10:30am 27.9 22.8 4.2 22 12.0 SSE 20 30 11 16 1012.3 - 0.0
23/10:00am 26.7 21.4 5.1 25 11.0 SSE 22 32 12 17 1012.8 - 0.0
23/09:30am 25.5 20.5 4.6 26 10.5 SSE 20 39 11 21 1012.8 - 0.0
23/09:00am 24.2 18.3 4.0 27 10.0 SSE 24 35 13 19 1012.7 1012.6 0.0
23/08:30am 23.2 16.9 3.7 28 9.5 SSE 26 35 14 19 1012.9 - 0.0
23/08:00am 21.9 16.3 3.6 30 8.8 S 22 30 12 16 1012.8 - 0.0
23/07:30am 20.4 15.1 3.2 32 8.1 SSE 20 28 11 15 1012.4 - 0.0
23/07:00am 19.0 14.7 3.2 35 7.4 SSE 15 19 8 10 1012.3 - 0.0
23/06:30am 19.2 14.5 3.0 34 7.6 S 17 20 9 11 1012.1 - 0.0
23/06:00am 19.8 14.5 3.1 33 7.8 S 20 24 11 13 1011.8 1011.5 0.0
23/05:30am 20.0 13.9 2.8 32 8.0 S 24 30 13 16 1011.4 - 0.0
23/05:00am 20.1 14.4 2.9 32 8.1 S 22 28 12 15 1011.3 - 0.0
23/04:30am 20.1 14.9 3.3 33 7.9 S 20 24 11 13 1011.3 - 0.0
23/04:00am 20.4 15.1 3.2 32 8.1 S 20 26 11 14 1011.2 - 0.0
23/03:30am 20.7 15.5 3.4 32 8.2 S 20 26 11 14 1011.4 - 0.0
23/03:00am 21.2 16.2 3.4 31 8.5 S 19 24 10 13 1011.6 1011.4 0.0
23/02:30am 21.7 16.5 3.4 30 8.8 S 20 28 11 15 1011.8 - 0.0
23/02:00am 22.3 17.1 3.4 29 9.1 S 20 26 11 14 1012.0 - 0.0
23/01:30am 22.8 17.6 3.4 28 9.4 S 20 28 11 15 1011.9 - 0.0
23/01:00am 23.2 17.9 3.2 27 9.6 S 20 28 11 15 1012.2 - 0.0
23/12:30am 23.8 17.7 2.6 25 10.2 S 24 32 13 17 1012.3 - 0.0
23/12:00am 24.2 18.8 2.4 24 10.4 S 20 28 11 15 1012.3 1012.2 0.0
 
Date/Time
EST
Temp
°C
App
Temp
°C
Dew
Point
Rel
Hum
%
Delta-T
°C
Wind Press
QNH
hPa
Press
MSL
hPa
Rain
since 9 am
mm
Dir
 
Spd
km/h
Gust
km/h
Spd
kts
Gust
kts
22/11:30pm 24.1 19.2 2.3 24 10.4 S 17 20 9 11 1012.5 - 0.0
22/11:00pm 24.1 19.7 2.9 25 10.2 S 15 20 8 11 1012.6 - 0.0
22/10:30pm 24.4 20.1 3.1 25 10.3 S 15 19 8 10 1012.6 - 0.0
22/10:00pm 25.2 20.9 3.2 24 10.8 S 15 20 8 11 1012.6 - 0.0
22/09:30pm 25.9 21.4 4.4 25 10.8 S 17 20 9 11 1012.4 - 0.0
22/09:00pm 26.9 22.6 5.2 25 11.1 SSW 17 22 9 12 1012.3 1012.0 0.0

Other Formats:

Comma delimited format used in spreadsheet applications
http://www.bom.gov.au/fwo/IDQ60801/IDQ60801.94266.axf

JavaScript Object Notation format (JSON) in row-major order
http://www.bom.gov.au/fwo/IDQ60801/IDQ60801.94266.json